Time;durP1;ratioP1;P1;durP2;ratioP2;P2;SDS_P1;SDS_P2;PMS_P1;PMS_P2;Temp;Humidity;BMP_temperature;BMP_pressure;BME280_temperature;BME280_humidity;BME280_pressure;Samples;Min_cycle;Max_cycle;Signal;HPM_P1;HPM_P2
2022/10/12 00:01:42;;;;;;;19.07;13.30;;;;;;;9.97;75.66;100839.50;1796124;79;20990;-74
2022/10/12 00:04:08;;;;;;;17.70;12.37;;;;;;;10.02;75.16;100837.98;1796626;79;21018;-74
2022/10/12 00:06:36;;;;;;;16.07;11.63;;;;;;;10.07;74.22;100842.78;1800972;78;20950;-73
2022/10/12 00:09:02;;;;;;;19.17;12.55;;;;;;;10.11;73.45;100840.95;1796595;79;21046;-73
2022/10/12 00:11:29;;;;;;;18.37;13.50;;;;;;;10.14;73.02;100841.91;1790114;79;20948;-74
2022/10/12 00:13:56;;;;;;;17.00;11.70;;;;;;;10.17;73.09;100838.09;1796300;78;20918;-75
2022/10/12 00:16:25;;;;;;;17.70;14.20;;;;;;;10.19;73.24;100843.22;1794353;79;21084;-75
2022/10/12 00:18:54;;;;;;;18.47;13.67;;;;;;;10.19;72.95;100845.88;1795266;79;21068;-74
2022/10/12 00:21:21;;;;;;;15.83;12.03;;;;;;;10.20;72.79;100841.72;1785666;80;20950;-74
2022/10/12 00:23:48;;;;;;;16.60;10.50;;;;;;;10.19;72.76;100842.74;1796675;79;21017;-75
2022/10/12 00:26:19;;;;;;;;;;;;;;;10.18;72.52;100848.23;1792142;79;20985;-74
2022/10/12 00:28:47;;;;;;;11.93;8.97;;;;;;;10.18;71.76;100849.57;1796385;79;20142;-74
2022/10/12 00:31:17;;;;;;;10.90;8.80;;;;;;;10.13;71.38;100850.92;1782060;80;20950;-74
2022/10/12 00:33:46;;;;;;;10.03;8.03;;;;;;;10.14;71.46;100852.57;1795790;79;20949;-73
2022/10/12 00:36:18;;;;;;;14.43;9.70;;;;;;;10.13;70.70;100853.59;1759199;80;20955;-74
2022/10/12 00:38:45;;;;;;;13.80;9.40;;;;;;;10.08;70.72;100852.45;1754810;81;21053;-74
2022/10/12 00:41:13;;;;;;;14.13;8.77;;;;;;;10.02;70.74;100847.78;1759212;80;20976;-74
2022/10/12 00:43:42;;;;;;;12.37;9.40;;;;;;;10.00;70.95;100856.45;1740789;81;20994;-74
2022/10/12 00:46:27;;;;;;;10.83;9.20;;;;;;;9.96;70.98;100857.80;1758235;80;20971;-74
2022/10/12 00:49:15;;;;;;;11.63;8.90;;;;;;;9.96;71.06;100852.47;1739567;81;20962;-73
2022/10/12 00:51:45;;;;;;;11.45;8.78;;;;;;;9.94;71.16;100853.49;1740498;81;20989;-74
2022/10/12 00:54:15;;;;;;;10.67;8.50;;;;;;;9.93;71.23;100847.83;1747231;80;20993;-74
2022/10/12 00:56:46;;;;;;;14.07;8.30;;;;;;;9.93;71.45;100851.82;1760913;80;21479;-73
2022/10/12 00:59:20;;;;;;;15.20;8.63;;;;;;;9.90;71.66;100852.66;1736960;82;20970;-75
2022/10/12 01:01:46;;;;;;;10.73;7.83;;;;;;;9.91;71.90;100856.48;1753792;81;20990;-74
2022/10/12 01:04:13;;;;;;;11.53;8.38;;;;;;;9.93;72.16;100858.48;1753538;81;21094;-74
2022/10/12 01:06:39;;;;;;;12.63;8.48;;;;;;;9.95;72.56;100858.31;1743277;80;21045;-75
2022/10/12 01:09:06;;;;;;;11.00;8.13;;;;;;;9.63;72.82;100800.67;1733004;81;21113;-75
2022/10/12 01:11:33;;;;;;;10.63;7.03;;;;;;;10.01;73.11;100851.47;1762391;80;21096;-72
2022/10/12 01:14:00;;;;;;;7.08;5.83;;;;;;;10.02;73.49;100850.45;1715529;81;21089;-74
2022/10/12 01:16:52;;;;;;;9.97;7.10;;;;;;;10.02;73.81;100852.63;1754776;81;21604;-75
2022/10/12 01:19:41;;;;;;;7.67;6.70;;;;;;;10.03;75.20;100854.78;1774329;80;21029;-73
2022/10/12 01:22:13;;;;;;;9.67;6.73;;;;;;;9.98;75.45;100856.62;1755753;80;21041;-74
2022/10/12 01:25:01;;;;;;;10.47;7.47;;;;;;;9.96;75.74;100852.47;1749665;80;21113;-74
2022/10/12 01:27:47;;;;;;;9.73;7.53;;;;;;;9.98;75.90;100858.45;1760687;79;21589;-73
2022/10/12 01:30:20;;;;;;;9.73;6.72;;;;;;;9.99;76.07;100862.80;1779656;79;20997;-74
2022/10/12 01:33:13;;;;;;;9.70;6.93;;;;;;;10.01;76.37;100862.12;1788257;78;21005;-73
2022/10/12 01:36:24;;;;;;;12.80;6.80;;;;;;;9.98;76.64;100855.80;1785240;78;21084;-74
2022/10/12 01:39:21;;;;;;;10.30;7.90;;;;;;;9.98;76.90;100861.13;1783118;78;21582;-74
2022/10/12 01:41:55;;;;;;;11.13;7.27;;;;;;;9.97;77.09;100862.96;1789088;78;21255;-74
2022/10/12 01:44:24;;;;;;;9.40;6.60;;;;;;;9.97;77.25;100859.48;1773581;79;21621;-75
2022/10/12 01:46:53;;;;;;;10.07;7.13;;;;;;;9.98;77.41;100861.13;1765611;80;21035;-73
2022/10/12 01:49:24;;;;;;;9.23;6.87;;;;;;;9.98;77.55;100863.78;1721336;81;21496;-74
2022/10/12 01:52:28;;;;;;;9.73;7.47;;;;;;;9.97;77.70;100867.47;1729531;81;20939;-74
2022/10/12 01:55:17;;;;;;;8.90;6.43;;;;;;;9.96;77.86;100868.45;1793049;78;20986;-72
2022/10/12 01:58:00;;;;;;;10.57;7.07;;;;;;;9.92;78.22;100863.45;1735582;79;20988;-75
2022/10/12 02:00:26;;;;;;;9.00;7.23;;;;;;;9.85;78.98;100865.17;1775341;79;20942;-74
2022/10/12 02:03:11;;;;;;;9.73;6.93;;;;;;;9.78;79.08;100867.35;1797899;78;20999;-74
2022/10/12 02:05:55;;;;;;;13.23;7.10;;;;;;;9.75;79.20;100873.32;1781349;79;20977;-74
2022/10/12 02:08:57;;;;;;;9.03;7.63;;;;;;;9.74;79.36;100877.51;1790454;78;21059;-74
2022/10/12 02:11:26;;;;;;;12.53;7.67;;;;;;;9.73;79.60;100882.48;1780586;78;21424;-74
2022/10/12 02:14:10;;;;;;;9.10;6.93;;;;;;;9.70;79.83;100886.80;1797949;78;20984;-74
2022/10/12 02:16:44;;;;;;;11.27;7.03;;;;;;;9.68;79.98;100881.67;1782384;78;20970;-73
2022/10/12 02:19:16;;;;;;;7.77;6.00;;;;;;;9.65;80.22;100889.17;1785176;79;20970;-73
2022/10/12 02:21:46;;;;;;;8.63;7.30;;;;;;;9.59;80.70;100889.81;1792088;78;20981;-74
2022/10/12 02:24:18;;;;;;;9.67;6.73;;;;;;;9.53;81.05;100897.50;1761624;80;21015;-73
2022/10/12 02:26:47;;;;;;;8.60;6.80;;;;;;;9.49;81.29;100896.17;1736692;81;21450;-73
2022/10/12 02:29:21;;;;;;;9.10;6.97;;;;;;;9.47;81.58;100905.30;1751168;81;21162;-73
2022/10/12 02:32:05;;;;;;;12.00;7.67;;;;;;;9.43;81.71;100904.80;1789824;78;21031;-74
2022/10/12 02:34:58;;;;;;;7.93;6.87;;;;;;;9.41;82.03;100905.47;1766898;80;20975;-73
2022/10/12 02:37:38;;;;;;;9.97;7.90;;;;;;;9.03;82.26;100850.61;1717495;81;21014;-74
2022/10/12 02:40:16;;;;;;;11.17;7.37;;;;;;;9.35;82.83;100898.16;1734871;81;21026;-74
2022/10/12 02:42:50;;;;;;;8.95;6.53;;;;;;;9.30;83.02;100906.62;1729916;81;20978;-73
2022/10/12 02:45:18;;;;;;;10.97;7.60;;;;;;;9.30;83.17;100912.45;1766576;80;21077;-73
2022/10/12 02:47:47;;;;;;;9.17;7.27;;;;;;;9.27;83.42;100912.30;1760124;80;21455;-75
2022/10/12 02:50:17;;;;;;;9.13;7.73;;;;;;;9.27;83.54;100916.80;1755007;80;20966;-75
2022/10/12 02:52:44;;;;;;;10.07;7.20;;;;;;;9.24;83.76;100913.12;1744538;81;20989;-74
2022/10/12 02:55:10;;;;;;;9.13;7.83;;;;;;;9.21;83.99;100908.98;1791644;78;20989;-74
2022/10/12 02:57:36;;;;;;;;;;;;;;;9.22;84.05;100911.95;1801730;78;20930;-70
2022/10/12 03:00:04;;;;;;;14.43;8.23;;;;;;;9.23;84.19;100918.95;1756167;80;20148;-72
2022/10/12 03:02:30;;;;;;;11.20;7.83;;;;;;;9.18;84.49;100923.11;1765160;80;21570;-71
2022/10/12 03:04:56;;;;;;;8.40;7.42;;;;;;;9.18;84.64;100923.11;1743565;80;21024;-72
2022/10/12 03:07:23;;;;;;;8.85;7.58;;;;;;;9.19;84.75;100929.56;1754742;80;20973;-70
2022/10/12 03:09:49;;;;;;;12.78;8.05;;;;;;;9.21;84.83;100932.06;1742312;81;20956;-71
2022/10/12 03:12:16;;;;;;;9.87;8.30;;;;;;;9.20;84.99;100929.09;1790614;78;21435;-72
2022/10/12 03:14:42;;;;;;;9.18;7.47;;;;;;;9.15;85.20;100930.42;1789231;79;21026;-71
2022/10/12 03:17:09;;;;;;;10.63;8.23;;;;;;;9.11;85.81;100938.36;1790680;78;20934;-71
2022/10/12 03:19:37;;;;;;;9.80;7.05;;;;;;;9.05;86.01;100931.05;1788412;78;21442;-71
2022/10/12 03:22:03;;;;;;;8.17;7.37;;;;;;;9.03;86.49;100942.35;1791370;79;20997;-71
2022/10/12 03:24:31;;;;;;;9.73;7.43;;;;;;;8.99;86.92;100941.02;1768295;80;21534;-71
2022/10/12 03:26:57;;;;;;;9.53;7.87;;;;;;;8.96;87.28;100947.98;1760603;80;21073;-71
2022/10/12 03:29:23;;;;;;;9.23;8.08;;;;;;;8.91;87.72;100948.95;1740204;81;21029;-70
2022/10/12 03:31:50;;;;;;;12.10;7.85;;;;;;;8.85;87.92;100947.78;1792801;79;21017;-70
2022/10/12 03:34:16;;;;;;;8.73;7.83;;;;;;;8.85;88.23;100950.94;1768669;80;21003;-70
2022/10/12 03:36:42;;;;;;;9.03;7.30;;;;;;;8.84;88.42;100941.33;1736899;81;21021;-71
2022/10/12 03:39:10;;;;;;;8.70;7.83;;;;;;;8.81;88.88;100949.11;1784353;78;21080;-72
2022/10/12 03:41:37;;;;;;;11.07;8.37;;;;;;;8.78;89.37;100946.79;1793047;78;20997;-71
2022/10/12 03:44:04;;;;;;;12.20;9.03;;;;;;;8.75;89.92;100951.09;1792301;78;21655;-71
2022/10/12 03:46:30;;;;;;;9.37;7.83;;;;;;;8.70;90.50;100955.57;1783336;79;21021;-73
2022/10/12 03:48:58;;;;;;;11.00;8.37;;;;;;;8.65;90.61;100959.20;1781567;79;20990;-71
2022/10/12 03:51:24;;;;;;;10.68;7.47;;;;;;;8.63;90.77;100952.39;1768810;80;21561;-72
2022/10/12 03:53:50;;;;;;;11.35;8.68;;;;;;;8.62;91.62;100948.87;1737394;81;21066;-70
2022/10/12 03:56:16;;;;;;;21.37;8.85;;;;;;;8.61;91.52;100953.88;1733408;81;21328;-70
2022/10/12 03:58:43;;;;;;;13.10;9.03;;;;;;;8.58;92.26;100954.18;1718430;82;21007;-69
2022/10/12 04:01:09;;;;;;;11.00;9.73;;;;;;;8.53;92.41;100950.69;1756504;81;21059;-70
2022/10/12 04:03:36;;;;;;;9.70;8.60;;;;;;;8.50;93.23;100951.50;1792122;79;21064;-79
2022/10/12 04:06:03;;;;;;;9.63;8.20;;;;;;;8.45;93.76;100961.77;1790731;79;20974;-71
2022/10/12 04:08:29;;;;;;;10.43;8.65;;;;;;;8.41;93.75;100959.89;1786029;78;21054;-71
2022/10/12 04:10:55;;;;;;;12.85;8.18;;;;;;;8.38;94.16;100961.52;1792504;78;21086;-71
2022/10/12 04:13:23;;;;;;;12.53;7.70;;;;;;;8.36;94.24;100968.34;1791053;78;20987;-73
2022/10/12 04:15:51;;;;;;;10.17;6.87;;;;;;;8.34;94.29;100967.67;1799296;78;20989;-73
2022/10/12 04:18:17;;;;;;;11.18;8.05;;;;;;;8.36;94.39;100968.82;1792726;79;20971;-73
2022/10/12 04:20:46;;;;;;;;;;;;;;;8.39;94.45;100968.02;1804708;78;20985;-73
2022/10/12 04:23:12;;;;;;;11.43;7.47;;;;;;;8.42;94.43;100970.90;1802320;78;20160;-76
2022/10/12 04:25:38;;;;;;;9.00;7.28;;;;;;;8.39;94.63;100975.16;1792478;78;21088;-70
2022/10/12 04:28:05;;;;;;;9.20;8.23;;;;;;;8.42;94.82;100976.69;1792080;78;21120;-67
2022/10/12 04:30:32;;;;;;;9.55;8.30;;;;;;;8.43;94.89;100975.20;1792826;79;21057;-68
2022/10/12 04:32:58;;;;;;;;;;;;;;;8.43;95.67;100979.69;1794847;78;21054;-68
2022/10/12 04:35:24;;;;;;;10.43;8.67;;;;;;;8.46;95.76;100980.72;1792413;79;20119;-69
2022/10/12 04:37:50;;;;;;;13.58;9.20;;;;;;;8.55;96.42;100987.70;1792504;79;20982;-68
2022/10/12 04:40:17;;;;;;;8.80;7.85;;;;;;;8.76;96.07;100982.83;1784766;80;21034;-68
2022/10/12 04:42:44;;;;;;;11.40;8.37;;;;;;;9.00;95.12;100993.19;1733633;81;21115;-69
2022/10/12 04:45:10;;;;;;;10.80;9.63;;;;;;;9.30;94.59;100996.25;1743846;81;21695;-69
2022/10/12 04:47:37;;;;;;;19.20;10.40;;;;;;;9.57;91.75;100990.29;1792722;78;21065;-68
2022/10/12 04:50:04;;;;;;;;;;;;;;;9.79;90.91;101000.78;1790395;78;21025;-70
2022/10/12 04:52:31;;;;;;;12.47;8.93;;;;;;;10.04;89.14;100989.60;1797792;78;20186;-70
2022/10/12 04:54:57;;;;;;;10.40;8.00;;;;;;;10.30;87.99;100996.05;1789275;79;21053;-69
2022/10/12 04:57:23;;;;;;;12.47;8.93;;;;;;;10.58;86.02;100996.50;1791646;79;20950;-69
2022/10/12 04:59:49;;;;;;;10.82;7.58;;;;;;;10.87;85.08;101001.22;1792028;79;21010;-71
2022/10/12 05:02:15;;;;;;;9.68;8.25;;;;;;;11.21;83.97;101005.38;1791860;78;21005;-71
2022/10/12 05:04:42;;;;;;;9.10;7.85;;;;;;;11.55;82.14;101007.33;1790911;78;21061;-69
2022/10/12 05:07:08;;;;;;;10.35;8.25;;;;;;;11.76;79.46;101013.34;1792875;78;21061;-68
2022/10/12 05:09:38;;;;;;;11.65;8.65;;;;;;;11.69;78.81;101014.55;1791772;78;21012;-69
2022/10/12 05:12:05;;;;;;;9.45;8.48;;;;;;;11.65;78.53;101018.59;1789984;79;21544;-70
2022/10/12 05:14:33;;;;;;;10.03;9.00;;;;;;;11.78;79.05;101018.81;1793580;78;20958;-69
2022/10/12 05:17:01;;;;;;;10.10;8.45;;;;;;;12.06;77.71;101020.44;1791852;78;21520;-70
2022/10/12 05:19:28;;;;;;;10.43;7.87;;;;;;;12.29;75.72;101022.22;1792620;79;21030;-70
2022/10/12 05:21:55;;;;;;;11.45;8.20;;;;;;;12.52;74.99;101018.12;1791566;78;20985;-72
2022/10/12 05:24:21;;;;;;;10.45;8.50;;;;;;;12.76;73.92;101025.55;1792701;78;20998;-70
2022/10/12 05:26:46;;;;;;;9.98;8.43;;;;;;;13.06;71.96;101022.33;1792698;78;21025;-68
2022/10/12 05:29:13;;;;;;;15.93;8.68;;;;;;;13.32;70.71;101025.84;1792668;77;21049;-70
2022/10/12 05:31:39;;;;;;;;;;;;;;;13.52;70.10;101031.91;1795088;79;21482;-71
2022/10/12 05:34:05;;;;;;;10.98;9.85;;;;;;;13.86;68.96;101029.84;1792345;78;20134;-72
2022/10/12 05:36:32;;;;;;;9.68;8.35;;;;;;;14.05;67.74;101029.69;1793666;79;21483;-71
2022/10/12 05:38:58;;;;;;;10.88;8.68;;;;;;;14.33;66.44;101029.69;1792046;79;21009;-72
2022/10/12 05:41:26;;;;;;;11.83;10.72;;;;;;;14.56;64.97;101027.25;1792307;78;20998;-70
2022/10/12 05:43:52;;;;;;;15.38;12.63;;;;;;;14.75;64.13;101034.63;1792711;78;22096;-71
2022/10/12 05:46:18;;;;;;;12.37;10.05;;;;;;;14.87;63.55;101036.75;1779298;79;21056;-70
2022/10/12 05:48:45;;;;;;;11.55;8.90;;;;;;;14.97;63.03;101030.48;1792007;78;20973;-71
2022/10/12 05:51:11;;;;;;;9.30;7.92;;;;;;;15.14;62.07;101035.83;1790473;78;21033;-70
2022/10/12 05:53:37;;;;;;;16.15;10.63;;;;;;;15.24;61.30;101038.62;1792497;78;21603;-75
2022/10/12 05:56:03;;;;;;;;;;;;;;;15.30;61.04;101040.00;1794121;78;21090;-73
2022/10/12 05:58:30;;;;;;;11.22;9.30;;;;;;;15.50;60.15;101041.90;1766166;80;20122;-69
2022/10/12 06:01:07;;;;;;;9.10;8.20;;;;;;;15.61;60.03;101043.17;1766803;80;21075;-72
2022/10/12 06:03:33;;;;;;;;;;;;;;;15.64;59.34;101050.83;1739734;81;21542;-71
2022/10/12 06:06:03;;;;;;;12.50;11.00;;;;;;;15.70;59.44;101052.17;1763601;80;20485;-74
2022/10/12 06:08:30;;;;;;;9.88;7.90;;;;;;;15.45;59.69;101055.14;1764501;79;21522;-74
2022/10/12 06:10:58;;;;;;;8.65;7.75;;;;;;;15.04;60.87;101065.42;1735698;81;21514;-76
2022/10/12 06:13:25;;;;;;;10.03;7.78;;;;;;;14.66;62.14;101069.36;1734692;81;21498;-80
2022/10/12 06:15:53;;;;;;;11.10;7.97;;;;;;;14.17;63.80;101072.39;1790932;79;21021;-78
2022/10/12 06:18:20;;;;;;;;;;;;;;;13.55;66.31;101075.21;1793336;78;21574;-74
2022/10/12 06:20:51;;;;;;;9.00;8.10;;;;;;;12.95;69.16;101077.14;1792630;78;20187;-77
2022/10/12 06:23:19;;;;;;;11.20;7.85;;;;;;;12.45;71.61;101077.36;1747150;81;21462;-76
2022/10/12 06:25:51;;;;;;;9.08;7.87;;;;;;;12.16;73.72;101082.98;1792097;79;21205;-76
2022/10/12 06:28:20;;;;;;;10.93;8.73;;;;;;;12.01;75.07;101078.10;1792106;78;21036;-79
2022/10/12 06:30:55;;;;;;;12.78;8.78;;;;;;;11.80;76.33;101083.56;1791367;78;21485;-81
2022/10/12 06:33:23;;;;;;;9.55;8.33;;;;;;;11.62;76.74;101085.20;1791862;78;21490;-75
2022/10/12 06:35:50;;;;;;;12.20;9.73;;;;;;;11.59;78.25;101084.73;1791390;78;21463;-75
2022/10/12 06:38:16;;;;;;;8.85;8.08;;;;;;;11.57;78.21;101077.40;1791185;78;21079;-77
2022/10/12 06:40:42;;;;;;;13.95;9.38;;;;;;;11.58;78.49;101088.39;1781256;79;20989;-75
2022/10/12 06:43:09;;;;;;;13.05;10.40;;;;;;;11.56;78.73;101087.73;1791628;78;21159;-77
2022/10/12 06:45:37;;;;;;;14.70;9.58;;;;;;;11.53;78.92;101098.76;1791811;78;21572;-74
2022/10/12 06:48:04;;;;;;;10.53;9.43;;;;;;;11.45;79.44;101093.82;1792542;79;21037;-74
2022/10/12 06:50:31;;;;;;;11.48;9.30;;;;;;;11.39;79.91;101095.83;1785586;79;20946;-76
2022/10/12 06:52:57;;;;;;;11.75;9.38;;;;;;;11.35;80.57;101098.53;1787692;78;20946;-76
2022/10/12 06:55:23;;;;;;;11.15;9.28;;;;;;;11.35;80.57;101098.53;1793023;79;21122;-77
2022/10/12 06:57:49;;;;;;;11.75;9.95;;;;;;;11.37;80.83;101097.02;1768253;80;20991;-76
2022/10/12 07:00:17;;;;;;;16.93;9.60;;;;;;;11.40;80.64;101100.69;1732532;81;20983;-79
2022/10/12 07:02:43;;;;;;;15.72;9.25;;;;;;;11.45;80.51;101103.16;1736438;81;21137;-77
2022/10/12 07:05:09;;;;;;;11.68;9.63;;;;;;;11.55;80.22;101115.46;1761709;79;21009;-74
2022/10/12 07:07:37;;;;;;;10.82;9.55;;;;;;;11.59;80.04;101106.91;1745093;81;21056;-74
2022/10/12 07:10:06;;;;;;;13.45;8.98;;;;;;;11.67;80.05;101110.03;1792079;78;21035;-77
2022/10/12 07:12:36;;;;;;;13.65;9.43;;;;;;;11.69;79.93;101102.16;1791768;79;20986;-74
2022/10/12 07:15:06;;;;;;;13.38;9.98;;;;;;;11.66;80.31;101110.55;1790845;78;21014;-73
2022/10/12 07:17:34;;;;;;;15.50;10.00;;;;;;;11.68;80.34;101110.38;1791812;78;20981;-74
2022/10/12 07:20:00;;;;;;;11.75;9.85;;;;;;;11.76;80.29;101112.98;1792243;78;20982;-74
2022/10/12 07:22:26;;;;;;;11.75;9.38;;;;;;;11.81;80.13;101116.44;1774670;78;21640;-74
2022/10/12 07:24:52;;;;;;;11.53;10.32;;;;;;;11.81;79.99;101117.30;1800973;78;21052;-74
2022/10/12 07:27:18;;;;;;;12.73;8.60;;;;;;;11.80;80.21;101116.95;1792601;79;21005;-73
2022/10/12 07:29:44;;;;;;;11.50;10.20;;;;;;;11.80;80.58;101123.63;1792075;79;21009;-74
2022/10/12 07:32:11;;;;;;;12.03;9.45;;;;;;;11.80;80.37;101114.28;1777617;79;21085;-78
2022/10/12 07:34:37;;;;;;;16.37;11.05;;;;;;;11.82;80.67;101119.45;1792209;79;21048;-74
2022/10/12 07:37:04;;;;;;;13.15;9.83;;;;;;;11.85;80.65;101114.59;1796513;78;21009;-73
2022/10/12 07:39:30;;;;;;;14.90;10.70;;;;;;;11.88;80.30;101122.27;1796881;78;21022;-74
2022/10/12 07:41:56;;;;;;;11.75;10.10;;;;;;;11.90;80.19;101125.27;1792266;78;20938;-79
2022/10/12 07:44:23;;;;;;;14.25;11.08;;;;;;;11.91;80.37;101125.62;1789713;79;21026;-74
2022/10/12 07:46:50;;;;;;;11.43;9.98;;;;;;;11.92;80.46;101121.41;1791245;78;21108;-75
2022/10/12 07:49:17;;;;;;;14.23;10.48;;;;;;;11.96;80.41;101121.88;1767298;80;21066;-73
2022/10/12 07:51:46;;;;;;;13.88;10.50;;;;;;;11.99;81.12;101125.03;1731760;81;21057;-74
2022/10/12 07:54:14;;;;;;;12.28;10.40;;;;;;;12.08;81.09;101117.80;1742574;81;21020;-73
2022/10/12 07:56:41;;;;;;;12.95;8.90;;;;;;;12.16;80.07;101121.73;1791999;78;21014;-79
2022/10/12 07:59:07;;;;;;;11.30;8.60;;;;;;;12.24;80.20;101121.68;1785607;78;21118;-75
2022/10/12 08:01:34;;;;;;;;;;;;;;;12.35;79.91;101124.92;1791059;79;21351;-77
2022/10/12 08:04:00;;;;;;;10.93;9.78;;;;;;;12.41;79.57;101117.02;1791503;78;20140;-79
2022/10/12 08:06:30;;;;;;;15.38;10.18;;;;;;;12.45;79.48;101118.31;1793174;78;21010;-77
2022/10/12 08:09:00;;;;;;;17.62;10.38;;;;;;;12.55;79.38;101123.40;1788892;78;21121;-78
2022/10/12 08:11:27;;;;;;;13.13;9.10;;;;;;;12.65;78.76;101121.79;1796046;78;21003;-77
2022/10/12 08:13:55;;;;;;;12.70;9.00;;;;;;;12.77;78.35;101119.00;1787212;78;21553;-76
2022/10/12 08:16:22;;;;;;;11.33;7.85;;;;;;;12.87;77.83;101120.06;1785668;78;21116;-75
2022/10/12 08:18:49;;;;;;;11.68;8.50;;;;;;;12.94;76.51;101118.31;1767282;79;21112;-74
2022/10/12 08:21:16;;;;;;;7.62;6.75;;;;;;;12.96;76.09;101121.64;1788932;78;21077;-80
2022/10/12 08:23:44;;;;;;;;;;;;;;;12.97;75.58;101115.77;1787219;78;21060;-78
2022/10/12 08:26:13;;;;;;;7.90;6.67;;;;;;;13.00;75.59;101118.09;1765977;79;20264;-78
2022/10/12 08:28:40;;;;;;;9.73;6.05;;;;;;;13.02;75.04;101120.89;1762344;80;21134;-78
2022/10/12 08:31:13;;;;;;;6.40;5.85;;;;;;;13.07;74.91;101123.51;1761937;80;21038;-74
2022/10/12 08:33:41;;;;;;;7.33;5.97;;;;;;;13.13;74.59;101125.44;1741466;81;21635;-76
2022/10/12 08:36:10;;;;;;;7.45;5.70;;;;;;;13.15;73.78;101124.25;1786691;79;21021;-75
2022/10/12 08:38:37;;;;;;;5.30;4.80;;;;;;;13.17;73.90;101122.73;1765158;80;21085;-75
2022/10/12 08:41:29;;;;;;;8.00;5.75;;;;;;;13.14;73.37;101119.91;1731941;81;21585;-79
2022/10/12 08:44:04;;;;;;;6.28;5.47;;;;;;;13.11;73.61;101128.81;1729644;81;21108;-77
2022/10/12 08:46:31;;;;;;;6.45;5.78;;;;;;;13.15;73.91;101123.43;1789600;79;21132;-76
2022/10/12 08:50:42;;;;;;;6.47;4.45;;;;;;;13.21;72.99;101120.00;1769332;79;22506;-77
2022/10/12 08:53:28;;;;;;;5.80;4.83;;;;;;;13.16;73.04;101124.56;1735340;80;21104;-77
2022/10/12 08:55:55;;;;;;;;;;;;;;;13.22;73.04;101125.17;1733608;81;21504;-74
2022/10/12 08:58:34;;;;;;;6.33;5.08;;;;;;;13.28;73.28;101124.94;1713037;81;20133;-77
2022/10/12 09:01:15;;;;;;;4.40;3.83;;;;;;;13.28;72.67;101121.41;1738832;81;21001;-78
2022/10/12 09:04:30;;;;;;;8.98;4.67;;;;;;;13.34;71.95;101121.53;1703988;82;21121;-80
2022/10/12 09:07:09;;;;;;;24.25;4.33;;;;;;;13.39;71.70;101124.48;1716439;82;21061;-78
2022/10/12 09:10:32;;;;;;;5.80;4.90;;;;;;;13.38;71.39;101125.49;1712154;82;21050;-78
2022/10/12 09:13:12;;;;;;;7.85;4.30;;;;;;;13.41;71.55;101118.92;1717479;82;21024;-81
2022/10/12 09:15:57;;;;;;;5.65;4.37;;;;;;;13.47;70.76;101122.69;1712595;81;21040;-80
2022/10/12 09:18:35;;;;;;;8.75;4.72;;;;;;;13.48;69.80;101125.70;1715777;82;20959;-79
2022/10/12 09:21:05;;;;;;;3.80;3.20;;;;;;;13.47;70.03;101118.19;1676634;83;21098;-80
2022/10/12 09:23:38;;;;;;;6.87;3.62;;;;;;;13.50;69.48;101114.30;1659675;85;21131;-79
2022/10/12 09:26:15;;;;;;;3.75;2.30;;;;;;;13.54;67.85;101115.58;1705656;82;21032;-79
2022/10/12 09:28:54;;;;;;;6.35;2.33;;;;;;;13.50;63.72;101111.62;1639040;85;20989;-79
2022/10/12 09:32:02;;;;;;;5.80;1.85;;;;;;;13.55;63.33;101110.55;1629930;86;21033;-80
2022/10/12 09:34:29;;;;;;;3.25;1.17;;;;;;;13.57;63.26;101116.03;1619424;86;21095;-81
2022/10/12 09:36:56;;;;;;;5.08;1.10;;;;;;;13.66;62.96;101106.55;1650282;84;21065;-80
2022/10/12 09:39:34;;;;;;;4.00;1.55;;;;;;;13.74;60.86;101109.10;1696128;84;21135;-78
2022/10/12 09:42:01;;;;;;;7.42;2.87;;;;;;;13.80;59.52;101112.35;1649758;85;21488;-80
2022/10/12 09:44:39;;;;;;;2.75;1.35;;;;;;;13.79;57.63;101111.53;1660789;84;21036;-78
2022/10/12 09:47:28;;;;;;;2.92;1.27;;;;;;;13.85;57.86;101115.81;1683618;84;21360;-80
2022/10/12 09:50:01;;;;;;;5.65;2.40;;;;;;;13.95;57.00;101116.31;1677253;82;21016;-79
2022/10/12 09:52:40;;;;;;;3.72;1.70;;;;;;;13.99;57.70;101110.88;1673664;84;21041;-80
2022/10/12 09:55:21;;;;;;;4.05;1.95;;;;;;;14.05;58.49;101116.81;1669387;84;21022;-80
2022/10/12 09:57:59;;;;;;;6.37;2.52;;;;;;;14.10;58.25;101108.20;1689316;83;21032;-79
2022/10/12 10:00:30;;;;;;;6.65;2.47;;;;;;;14.17;58.51;101106.42;1666387;84;21101;-81
2022/10/12 10:02:57;;;;;;;2.90;1.60;;;;;;;14.25;56.32;101111.63;1643832;86;21001;-79
2022/10/12 10:05:29;;;;;;;5.72;2.10;;;;;;;14.26;56.29;101111.11;1665232;83;20972;-81
2022/10/12 10:08:19;;;;;;;3.98;2.22;;;;;;;14.26;56.58;101107.95;1698589;83;21049;-82
2022/10/12 10:10:51;;;;;;;6.40;1.75;;;;;;;14.26;55.83;101111.11;1693889;83;21083;-82
2022/10/12 10:13:23;;;;;;;2.95;1.60;;;;;;;14.25;55.72;101105.45;1698514;83;21037;-82
2022/10/12 10:18:42;;;;;;;4.25;1.35;;;;;;;14.24;55.17;101095.73;1633756;82;86669;-87
2022/10/12 10:24:29;;;;;;;5.62;1.75;;;;;;;14.25;53.64;101093.38;1616332;84;88933;-86
2022/10/12 10:27:05;;;;;;;4.35;2.00;;;;;;;14.24;54.27;101092.56;1579752;89;21223;-87
2022/10/12 10:29:39;;;;;;;5.08;2.17;;;;;;;14.24;54.69;101094.39;1589347;89;21037;-84
2022/10/12 10:32:27;;;;;;;12.47;6.87;;;;;;;14.26;54.27;101097.70;1577928;89;21078;-89
2022/10/12 10:35:14;;;;;;;6.83;3.30;;;;;;;14.29;54.09;101095.98;1584085;89;21668;-86
2022/10/12 10:37:55;;;;;;;2.60;1.60;;;;;;;14.28;52.96;101095.17;1611034;83;89384;-78
2022/10/12 10:40:31;;;;;;;8.03;2.05;;;;;;;14.27;53.22;101098.86;1704630;83;21035;-80
2022/10/12 10:43:04;;;;;;;8.65;4.65;;;;;;;14.23;53.18;101095.44;1653379;84;21140;-78
2022/10/12 10:45:45;;;;;;;5.47;2.70;;;;;;;14.18;53.70;101090.15;1662943;84;21146;-79
2022/10/12 10:48:19;;;;;;;3.87;1.98;;;;;;;14.10;53.01;101094.28;1667873;83;21061;-79
2022/10/12 10:50:59;;;;;;;8.03;4.72;;;;;;;14.05;53.75;101095.88;1682324;84;21005;-80
2022/10/12 10:53:29;;;;;;;9.45;3.67;;;;;;;13.98;53.45;101095.84;1693704;83;21010;-87
2022/10/12 10:56:20;;;;;;;5.50;1.98;;;;;;;13.98;54.18;101095.84;1666583;84;21077;-87
2022/10/12 10:58:51;;;;;;;8.68;3.58;;;;;;;13.98;54.52;101098.00;1690572;83;21041;-84
2022/10/12 11:01:31;;;;;;;6.95;2.50;;;;;;;13.98;54.18;101095.84;1694549;83;21164;-84
2022/10/12 11:04:03;;;;;;;4.97;2.20;;;;;;;13.99;54.05;101100.16;1649916;86;21580;-82
2022/10/12 11:06:46;;;;;;;4.70;2.55;;;;;;;14.05;53.77;101098.05;1696732;83;21035;-83
2022/10/12 11:09:24;;;;;;;5.70;2.87;;;;;;;13.65;52.27;101037.91;1668127;84;21046;-86
2022/10/12 11:12:02;;;;;;;10.35;6.17;;;;;;;14.02;53.08;101099.79;1661346;84;21033;-89
2022/10/12 11:14:49;;;;;;;5.97;2.50;;;;;;;14.03;53.36;101097.41;1654062;84;21026;-88
2022/10/12 11:17:29;;;;;;;4.08;1.40;;;;;;;14.09;53.79;101103.37;1676769;84;21037;-89
2022/10/12 11:20:21;;;;;;;6.33;1.87;;;;;;;14.15;53.62;101088.36;1675666;84;21031;-89
2022/10/12 11:22:55;;;;;;;3.37;1.42;;;;;;;14.16;53.14;101088.14;1674586;84;21065;-86
2022/10/12 11:25:33;;;;;;;10.93;7.40;;;;;;;14.19;51.97;101091.79;1695767;83;21005;-86
2022/10/12 11:28:00;;;;;;;6.60;2.17;;;;;;;14.21;52.05;101096.44;1667131;84;21037;-85
2022/10/12 11:30:32;;;;;;;6.53;2.60;;;;;;;14.22;51.86;101098.61;1700899;83;21052;-83
2022/10/12 11:33:08;;;;;;;4.75;1.22;;;;;;;14.18;52.09;101095.51;1699073;83;21081;-89
2022/10/12 11:35:39;;;;;;;5.78;2.42;;;;;;;14.12;52.65;101087.39;1689077;83;21041;-87
2022/10/12 11:38:28;;;;;;;4.65;0.80;;;;;;;14.11;52.63;101091.08;1682338;84;21130;-86
2022/10/12 11:41:07;;;;;;;3.85;0.40;;;;;;;14.05;50.00;101090.00;1660667;84;22246;-82
2022/10/12 11:43:48;;;;;;;8.53;1.37;;;;;;;13.96;49.02;101100.05;1677798;85;21009;-88
2022/10/12 11:46:18;;;;;;;11.45;1.65;;;;;;;13.94;49.06;101098.59;1679810;84;21695;-80
2022/10/12 11:49:11;;;;;;;2.00;0.93;;;;;;;13.94;49.23;101091.37;1676011;84;21043;-86
2022/10/12 11:51:37;;;;;;;6.45;0.62;;;;;;;14.02;49.40;101089.89;1675933;85;21118;-83
2022/10/12 11:54:09;;;;;;;5.22;1.40;;;;;;;14.12;49.72;101087.39;1670461;84;21057;-82
2022/10/12 11:56:48;;;;;;;7.78;0.80;;;;;;;14.18;49.45;101087.95;1701751;83;21079;-81